sensor_id;sensor_type;location;lat;lon;timestamp;pressure;altitude;pressure_sealevel;temperature;humidity
56006;BME280;41888;44.696;10.522;2023-05-20T00:00:58;100651.06;;;13.50;100.00
56006;BME280;41888;44.696;10.522;2023-05-20T00:03:24;100656.03;;;13.47;100.00
56006;BME280;41888;44.696;10.522;2023-05-20T00:05:50;100650.88;;;13.52;100.00
56006;BME280;41888;44.696;10.522;2023-05-20T00:08:18;100647.22;;;13.46;100.00
56006;BME280;41888;44.696;10.522;2023-05-20T00:10:44;100655.47;;;13.38;100.00
56006;BME280;41888;44.696;10.522;2023-05-20T00:13:10;100653.03;;;13.37;100.00
56006;BME280;41888;44.696;10.522;2023-05-20T00:15:36;100649.56;;;13.36;100.00
56006;BME280;41888;44.696;10.522;2023-05-20T00:18:03;100648.72;;;13.36;100.00
56006;BME280;41888;44.696;10.522;2023-05-20T00:20:29;100647.69;;;13.37;100.00
56006;BME280;41888;44.696;10.522;2023-05-20T00:22:56;100649.56;;;13.36;100.00
56006;BME280;41888;44.696;10.522;2023-05-20T00:25:22;100642.78;;;13.34;100.00
56006;BME280;41888;44.696;10.522;2023-05-20T00:27:48;100650.22;;;13.32;100.00
56006;BME280;41888;44.696;10.522;2023-05-20T00:30:14;100645.69;;;13.32;100.00
56006;BME280;41888;44.696;10.522;2023-05-20T00:32:41;100642.56;;;13.35;100.00
56006;BME280;41888;44.696;10.522;2023-05-20T00:35:07;100641.75;;;13.35;100.00
56006;BME280;41888;44.696;10.522;2023-05-20T00:37:34;100639.53;;;13.32;100.00
56006;BME280;41888;44.696;10.522;2023-05-20T00:40:00;100638.03;;;13.36;100.00
56006;BME280;41888;44.696;10.522;2023-05-20T00:42:27;100637.44;;;13.34;100.00
56006;BME280;41888;44.696;10.522;2023-05-20T00:44:55;100628.75;;;13.38;100.00
56006;BME280;41888;44.696;10.522;2023-05-20T00:47:26;100620.28;;;13.48;100.00
56006;BME280;41888;44.696;10.522;2023-05-20T00:49:54;100615.19;;;13.40;100.00
56006;BME280;41888;44.696;10.522;2023-05-20T00:52:21;100613.34;;;13.40;100.00
56006;BME280;41888;44.696;10.522;2023-05-20T00:54:49;100616.81;;;13.41;100.00
56006;BME280;41888;44.696;10.522;2023-05-20T00:57:16;100609.63;;;13.41;100.00
56006;BME280;41888;44.696;10.522;2023-05-20T00:59:44;100600.78;;;13.41;100.00
56006;BME280;41888;44.696;10.522;2023-05-20T01:02:10;100600.56;;;13.42;100.00
56006;BME280;41888;44.696;10.522;2023-05-20T01:04:37;100605.31;;;13.40;100.00
56006;BME280;41888;44.696;10.522;2023-05-20T01:07:04;100611.69;;;13.39;100.00
56006;BME280;41888;44.696;10.522;2023-05-20T01:09:32;100601.97;;;13.45;100.00
56006;BME280;41888;44.696;10.522;2023-05-20T01:12:07;100594.84;;;13.39;100.00
56006;BME280;41888;44.696;10.522;2023-05-20T01:14:42;100592.97;;;13.39;100.00
56006;BME280;41888;44.696;10.522;2023-05-20T01:17:09;100587.63;;;13.39;100.00
56006;BME280;41888;44.696;10.522;2023-05-20T01:19:44;100582.09;;;13.41;100.00
56006;BME280;41888;44.696;10.522;2023-05-20T01:22:12;100581.88;;;13.42;100.00
56006;BME280;41888;44.696;10.522;2023-05-20T01:24:45;100575.91;;;13.40;100.00
56006;BME280;41888;44.696;10.522;2023-05-20T01:27:14;100579.56;;;13.46;100.00
56006;BME280;41888;44.696;10.522;2023-05-20T01:29:41;100576.69;;;13.47;100.00
56006;BME280;41888;44.696;10.522;2023-05-20T01:32:37;100581.06;;;13.42;100.00
56006;BME280;41888;44.696;10.522;2023-05-20T01:35:06;100576.94;;;13.39;100.00
56006;BME280;41888;44.696;10.522;2023-05-20T01:37:34;100575.53;;;13.37;100.00
56006;BME280;41888;44.696;10.522;2023-05-20T01:40:03;100571.03;;;13.37;100.00
56006;BME280;41888;44.696;10.522;2023-05-20T01:42:30;100571.59;;;13.39;100.00
56006;BME280;41888;44.696;10.522;2023-05-20T01:44:58;100566.03;;;13.41;100.00
56006;BME280;41888;44.696;10.522;2023-05-20T01:47:25;100568.09;;;13.39;100.00
56006;BME280;41888;44.696;10.522;2023-05-20T01:49:51;100563.78;;;13.38;100.00
56006;BME280;41888;44.696;10.522;2023-05-20T01:52:21;100560.34;;;13.37;100.00
56006;BME280;41888;44.696;10.522;2023-05-20T01:54:47;100557.66;;;13.37;100.00
56006;BME280;41888;44.696;10.522;2023-05-20T01:57:25;100555.41;;;13.34;100.00
56006;BME280;41888;44.696;10.522;2023-05-20T01:59:51;100556.53;;;13.27;100.00
56006;BME280;41888;44.696;10.522;2023-05-20T02:02:17;100550.78;;;13.23;100.00
56006;BME280;41888;44.696;10.522;2023-05-20T02:04:45;100554.06;;;13.25;100.00
56006;BME280;41888;44.696;10.522;2023-05-20T02:07:15;100553.69;;;13.22;100.00
56006;BME280;41888;44.696;10.522;2023-05-20T02:09:41;100541.72;;;13.24;100.00
56006;BME280;41888;44.696;10.522;2023-05-20T02:12:08;100540.19;;;13.35;100.00
56006;BME280;41888;44.696;10.522;2023-05-20T02:14:34;100532.22;;;13.28;100.00
56006;BME280;41888;44.696;10.522;2023-05-20T02:17:01;100534.75;;;13.23;100.00
56006;BME280;41888;44.696;10.522;2023-05-20T02:19:28;100537.66;;;13.22;100.00
56006;BME280;41888;44.696;10.522;2023-05-20T02:21:54;100528.59;;;13.23;100.00
56006;BME280;41888;44.696;10.522;2023-05-20T02:24:20;100521.63;;;13.22;100.00
56006;BME280;41888;44.696;10.522;2023-05-20T02:26:46;100522.41;;;13.22;100.00
56006;BME280;41888;44.696;10.522;2023-05-20T02:29:15;100518.72;;;13.23;100.00
56006;BME280;41888;44.696;10.522;2023-05-20T02:31:42;100517.91;;;13.23;100.00
56006;BME280;41888;44.696;10.522;2023-05-20T02:34:08;100519.53;;;13.24;100.00
56006;BME280;41888;44.696;10.522;2023-05-20T02:36:34;100521.38;;;13.23;100.00
56006;BME280;41888;44.696;10.522;2023-05-20T02:39:01;100517.91;;;13.23;100.00
56006;BME280;41888;44.696;10.522;2023-05-20T02:41:27;100517.31;;;13.21;100.00
56006;BME280;41888;44.696;10.522;2023-05-20T02:43:53;100523.25;;;13.23;100.00
56006;BME280;41888;44.696;10.522;2023-05-20T02:46:19;100524.06;;;13.23;100.00
56006;BME280;41888;44.696;10.522;2023-05-20T02:48:45;100521.28;;;13.11;100.00
56006;BME280;41888;44.696;10.522;2023-05-20T02:51:12;100517.56;;;13.13;100.00
56006;BME280;41888;44.696;10.522;2023-05-20T02:53:38;100514.25;;;13.17;100.00
56006;BME280;41888;44.696;10.522;2023-05-20T02:56:04;100507.50;;;13.15;100.00
56006;BME280;41888;44.696;10.522;2023-05-20T02:58:30;100516.72;;;13.19;100.00
56006;BME280;41888;44.696;10.522;2023-05-20T03:00:58;100508.09;;;13.17;100.00
56006;BME280;41888;44.696;10.522;2023-05-20T03:03:25;100503.81;;;13.16;100.00
56006;BME280;41888;44.696;10.522;2023-05-20T03:05:54;100498.00;;;13.19;100.00
56006;BME280;41888;44.696;10.522;2023-05-20T03:08:21;100500.69;;;13.19;100.00
56006;BME280;41888;44.696;10.522;2023-05-20T03:10:48;100497.19;;;13.18;100.00
56006;BME280;41888;44.696;10.522;2023-05-20T03:13:14;100495.34;;;13.19;100.00
56006;BME280;41888;44.696;10.522;2023-05-20T03:15:41;100496.16;;;13.19;100.00
56006;BME280;41888;44.696;10.522;2023-05-20T03:18:09;100490.00;;;13.19;100.00
56006;BME280;41888;44.696;10.522;2023-05-20T03:20:35;100488.34;;;13.18;100.00
56006;BME280;41888;44.696;10.522;2023-05-20T03:23:03;100483.47;;;13.15;100.00
56006;BME280;41888;44.696;10.522;2023-05-20T03:25:30;100480.59;;;13.09;100.00
56006;BME280;41888;44.696;10.522;2023-05-20T03:27:56;100484.69;;;13.12;100.00
56006;BME280;41888;44.696;10.522;2023-05-20T03:30:28;100478.53;;;13.11;100.00
56006;BME280;41888;44.696;10.522;2023-05-20T03:32:55;100480.59;;;13.09;100.00
56006;BME280;41888;44.696;10.522;2023-05-20T03:35:25;100477.31;;;13.07;100.00
56006;BME280;41888;44.696;10.522;2023-05-20T03:37:51;100483.47;;;13.15;100.00
56006;BME280;41888;44.696;10.522;2023-05-20T03:40:18;100476.84;;;13.17;100.00
56006;BME280;41888;44.696;10.522;2023-05-20T03:42:47;100470.09;;;13.15;100.00
56006;BME280;41888;44.696;10.522;2023-05-20T03:45:15;100476.63;;;13.19;100.00
56006;BME280;41888;44.696;10.522;2023-05-20T03:47:41;100473.97;;;13.19;100.00
56006;BME280;41888;44.696;10.522;2023-05-20T03:50:08;100473.97;;;13.19;100.00
56006;BME280;41888;44.696;10.522;2023-05-20T03:52:34;100469.22;;;13.21;100.00
56006;BME280;41888;44.696;10.522;2023-05-20T03:55:01;100473.13;;;13.18;100.00
56006;BME280;41888;44.696;10.522;2023-05-20T03:57:27;100469.22;;;13.21;100.00
56006;BME280;41888;44.696;10.522;2023-05-20T03:59:54;100470.03;;;13.21;100.00
56006;BME280;41888;44.696;10.522;2023-05-20T04:02:20;100476.22;;;13.22;100.00
56006;BME280;41888;44.696;10.522;2023-05-20T04:04:46;100475.75;;;13.25;100.00
56006;BME280;41888;44.696;10.522;2023-05-20T04:07:13;100478.28;;;13.20;100.00
56006;BME280;41888;44.696;10.522;2023-05-20T04:09:39;100474.41;;;13.16;100.00
56006;BME280;41888;44.696;10.522;2023-05-20T04:12:05;100481.38;;;13.17;100.00
56006;BME280;41888;44.696;10.522;2023-05-20T04:14:32;100480.19;;;13.13;100.00
56006;BME280;41888;44.696;10.522;2023-05-20T04:17:05;100474.41;;;13.16;100.00
56006;BME280;41888;44.696;10.522;2023-05-20T04:19:31;100480.19;;;13.13;100.00
56006;BME280;41888;44.696;10.522;2023-05-20T04:21:59;100475.66;;;13.13;100.00
56006;BME280;41888;44.696;10.522;2023-05-20T04:24:26;100470.88;;;13.22;100.00
56006;BME280;41888;44.696;10.522;2023-05-20T04:26:52;100470.88;;;13.22;100.00
56006;BME280;41888;44.696;10.522;2023-05-20T04:29:19;100464.09;;;13.19;100.00
56006;BME280;41888;44.696;10.522;2023-05-20T04:31:46;100465.94;;;13.19;100.00
56006;BME280;41888;44.696;10.522;2023-05-20T04:34:13;100468.97;;;13.22;100.00
56006;BME280;41888;44.696;10.522;2023-05-20T04:36:39;100467.13;;;13.23;100.00
56006;BME280;41888;44.696;10.522;2023-05-20T04:39:05;100466.09;;;13.24;100.00
56006;BME280;41888;44.696;10.522;2023-05-20T04:41:34;100467.75;;;13.25;100.00
56006;BME280;41888;44.696;10.522;2023-05-20T04:44:01;100459.72;;;13.25;100.00
56006;BME280;41888;44.696;10.522;2023-05-20T04:46:28;100465.06;;;13.25;100.00
56006;BME280;41888;44.696;10.522;2023-05-20T04:48:54;100462.53;;;13.30;100.00
56006;BME280;41888;44.696;10.522;2023-05-20T04:51:21;100462.75;;;13.28;100.00
56006;BME280;41888;44.696;10.522;2023-05-20T04:53:47;100457.19;;;13.30;100.00
56006;BME280;41888;44.696;10.522;2023-05-20T04:56:15;100452.06;;;13.28;100.00
56006;BME280;41888;44.696;10.522;2023-05-20T04:58:42;100452.88;;;13.29;100.00
56006;BME280;41888;44.696;10.522;2023-05-20T05:01:08;100457.34;;;13.35;100.00
56006;BME280;41888;44.696;10.522;2023-05-20T05:03:34;100453.28;;;13.32;100.00
56006;BME280;41888;44.696;10.522;2023-05-20T05:06:00;100452.47;;;13.32;100.00
56006;BME280;41888;44.696;10.522;2023-05-20T05:08:26;100446.06;;;13.33;100.00
56006;BME280;41888;44.696;10.522;2023-05-20T05:10:53;100449.69;;;13.38;100.00
56006;BME280;41888;44.696;10.522;2023-05-20T05:13:19;100443.31;;;13.39;100.00
56006;BME280;41888;44.696;10.522;2023-05-20T05:15:45;100449.63;;;13.45;100.00
56006;BME280;41888;44.696;10.522;2023-05-20T05:18:12;100454.41;;;13.43;100.00
56006;BME280;41888;44.696;10.522;2023-05-20T05:20:38;100453.59;;;13.42;100.00
56006;BME280;41888;44.696;10.522;2023-05-20T05:23:04;100451.88;;;13.48;100.00
56006;BME280;41888;44.696;10.522;2023-05-20T05:25:31;100450.25;;;13.47;100.00
56006;BME280;41888;44.696;10.522;2023-05-20T05:27:57;100452.66;;;13.48;100.00
56006;BME280;41888;44.696;10.522;2023-05-20T05:30:24;100450.81;;;13.49;100.00
56006;BME280;41888;44.696;10.522;2023-05-20T05:32:50;100447.94;;;13.50;100.00
56006;BME280;41888;44.696;10.522;2023-05-20T05:35:16;100457.88;;;13.62;100.00
56006;BME280;41888;44.696;10.522;2023-05-20T05:37:42;100445.41;;;13.56;100.00
56006;BME280;41888;44.696;10.522;2023-05-20T05:40:09;100439.22;;;13.55;100.00
56006;BME280;41888;44.696;10.522;2023-05-20T05:42:35;100433.06;;;13.54;100.00
56006;BME280;41888;44.696;10.522;2023-05-20T05:45:01;100443.53;;;13.56;100.00
56006;BME280;41888;44.696;10.522;2023-05-20T05:47:28;100439.16;;;13.62;100.00
56006;BME280;41888;44.696;10.522;2023-05-20T05:49:57;100451.94;;;13.60;100.00
56006;BME280;41888;44.696;10.522;2023-05-20T05:52:25;100449.50;;;13.58;100.00
56006;BME280;41888;44.696;10.522;2023-05-20T05:54:52;100456.25;;;13.61;100.00
56006;BME280;41888;44.696;10.522;2023-05-20T05:57:18;100449.72;;;13.57;100.00
56006;BME280;41888;44.696;10.522;2023-05-20T05:59:45;100444.00;;;13.53;100.00
56006;BME280;41888;44.696;10.522;2023-05-20T06:02:11;100449.34;;;13.53;100.00
56006;BME280;41888;44.696;10.522;2023-05-20T06:04:39;100448.53;;;13.52;100.00
56006;BME280;41888;44.696;10.522;2023-05-20T06:07:06;100443.53;;;13.56;100.00
56006;BME280;41888;44.696;10.522;2023-05-20T06:09:32;100436.13;;;13.58;100.00
56006;BME280;41888;44.696;10.522;2023-05-20T06:11:58;100450.81;;;13.67;100.00
56006;BME280;41888;44.696;10.522;2023-05-20T06:14:24;100436.03;;;13.65;100.00
56006;BME280;41888;44.696;10.522;2023-05-20T06:16:51;100439.97;;;13.62;100.00
56006;BME280;41888;44.696;10.522;2023-05-20T06:19:17;100434.41;;;13.64;100.00
56006;BME280;41888;44.696;10.522;2023-05-20T06:21:43;100438.63;;;13.71;100.00
56006;BME280;41888;44.696;10.522;2023-05-20T06:24:09;100436.41;;;13.68;100.00
56006;BME280;41888;44.696;10.522;2023-05-20T06:26:35;100440.19;;;13.79;100.00
56006;BME280;41888;44.696;10.522;2023-05-20T06:29:02;100436.31;;;13.75;100.00
56006;BME280;41888;44.696;10.522;2023-05-20T06:31:29;100446.22;;;13.74;100.00
56006;BME280;41888;44.696;10.522;2023-05-20T06:33:55;100448.66;;;13.76;100.00
56006;BME280;41888;44.696;10.522;2023-05-20T06:36:21;100444.56;;;13.73;100.00
56006;BME280;41888;44.696;10.522;2023-05-20T06:38:47;100439.16;;;13.80;100.00
56006;BME280;41888;44.696;10.522;2023-05-20T06:41:14;100442.03;;;13.78;100.00
56006;BME280;41888;44.696;10.522;2023-05-20T06:43:40;100456.09;;;13.74;100.00
56006;BME280;41888;44.696;10.522;2023-05-20T06:46:06;100451.84;;;13.84;100.00
56006;BME280;41888;44.696;10.522;2023-05-20T06:48:32;100450.22;;;13.83;100.00
56006;BME280;41888;44.696;10.522;2023-05-20T06:50:58;100445.28;;;13.80;100.00
56006;BME280;41888;44.696;10.522;2023-05-20T06:53:25;100450.13;;;13.90;100.00
56006;BME280;41888;44.696;10.522;2023-05-20T06:55:53;100449.53;;;13.88;100.00
56006;BME280;41888;44.696;10.522;2023-05-20T06:58:20;100450.03;;;13.96;100.00
56006;BME280;41888;44.696;10.522;2023-05-20T07:00:47;100440.53;;;14.01;100.00
56006;BME280;41888;44.696;10.522;2023-05-20T07:03:13;100441.91;;;14.03;100.00
56006;BME280;41888;44.696;10.522;2023-05-20T07:05:39;100447.19;;;14.10;100.00
56006;BME280;41888;44.696;10.522;2023-05-20T07:08:05;100444.50;;;14.10;100.00
56006;BME280;41888;44.696;10.522;2023-05-20T07:10:32;100448.00;;;14.10;100.00
56006;BME280;41888;44.696;10.522;2023-05-20T07:12:59;100436.41;;;14.16;100.00
56006;BME280;41888;44.696;10.522;2023-05-20T07:15:25;100439.63;;;14.18;100.00
56006;BME280;41888;44.696;10.522;2023-05-20T07:17:51;100439.59;;;14.07;100.00
56006;BME280;41888;44.696;10.522;2023-05-20T07:20:18;100444.94;;;14.07;100.00
56006;BME280;41888;44.696;10.522;2023-05-20T07:22:44;100448.69;;;14.06;100.00
56006;BME280;41888;44.696;10.522;2023-05-20T07:25:11;100453.91;;;14.01;100.00
56006;BME280;41888;44.696;10.522;2023-05-20T07:27:37;100449.25;;;14.08;100.00
56006;BME280;41888;44.696;10.522;2023-05-20T07:30:04;100446.56;;;14.08;100.00
56006;BME280;41888;44.696;10.522;2023-05-20T07:32:30;100446.81;;;14.06;100.00
56006;BME280;41888;44.696;10.522;2023-05-20T07:34:56;100443.34;;;14.06;100.00
56006;BME280;41888;44.696;10.522;2023-05-20T07:37:23;100443.34;;;14.06;100.00
56006;BME280;41888;44.696;10.522;2023-05-20T07:39:49;100434.97;;;14.14;100.00
56006;BME280;41888;44.696;10.522;2023-05-20T07:42:15;100439.31;;;14.26;100.00
56006;BME280;41888;44.696;10.522;2023-05-20T07:44:41;100439.78;;;14.23;100.00
56006;BME280;41888;44.696;10.522;2023-05-20T07:47:08;100432.22;;;14.20;100.00
56006;BME280;41888;44.696;10.522;2023-05-20T07:49:35;100439.31;;;14.26;100.00
56006;BME280;41888;44.696;10.522;2023-05-20T07:52:01;100439.06;;;14.28;100.00
56006;BME280;41888;44.696;10.522;2023-05-20T07:54:27;100435.63;;;14.27;100.00
56006;BME280;41888;44.696;10.522;2023-05-20T07:56:53;100437.59;;;14.32;100.00
56006;BME280;41888;44.696;10.522;2023-05-20T07:59:19;100438.50;;;14.26;100.00
56006;BME280;41888;44.696;10.522;2023-05-20T08:01:46;100433.16;;;14.26;100.00
56006;BME280;41888;44.696;10.522;2023-05-20T08:04:12;100440.25;;;14.20;100.00
56006;BME280;41888;44.696;10.522;2023-05-20T08:06:38;100437.69;;;14.25;100.00
56006;BME280;41888;44.696;10.522;2023-05-20T08:09:06;100441.63;;;14.23;100.00
56006;BME280;41888;44.696;10.522;2023-05-20T08:11:32;100435.97;;;14.31;100.00
56006;BME280;41888;44.696;10.522;2023-05-20T08:13:59;100443.19;;;14.30;100.00
56006;BME280;41888;44.696;10.522;2023-05-20T08:16:25;100435.91;;;14.38;100.00
56006;BME280;41888;44.696;10.522;2023-05-20T08:18:51;100428.50;;;14.33;100.00
56006;BME280;41888;44.696;10.522;2023-05-20T08:21:17;100430.97;;;14.34;100.00
56006;BME280;41888;44.696;10.522;2023-05-20T08:23:43;100430.47;;;14.26;100.00
56006;BME280;41888;44.696;10.522;2023-05-20T08:26:10;100428.25;;;14.23;100.00
56006;BME280;41888;44.696;10.522;2023-05-20T08:28:36;100424.75;;;14.22;100.00
56006;BME280;41888;44.696;10.522;2023-05-20T08:31:03;100425.69;;;14.28;100.00
56006;BME280;41888;44.696;10.522;2023-05-20T08:33:29;100428.06;;;14.36;100.00
56006;BME280;41888;44.696;10.522;2023-05-20T08:35:55;100441.59;;;14.41;100.00
56006;BME280;41888;44.696;10.522;2023-05-20T08:38:21;100444.75;;;14.38;100.00
56006;BME280;41888;44.696;10.522;2023-05-20T08:40:54;100429.84;;;14.42;100.00
56006;BME280;41888;44.696;10.522;2023-05-20T08:43:22;100428.69;;;14.50;100.00
56006;BME280;41888;44.696;10.522;2023-05-20T08:45:48;100432.44;;;14.49;100.00
56006;BME280;41888;44.696;10.522;2023-05-20T08:48:17;100437.28;;;14.40;100.00
56006;BME280;41888;44.696;10.522;2023-05-20T08:50:51;100435.25;;;14.24;100.00
56006;BME280;41888;44.696;10.522;2023-05-20T08:53:19;100439.47;;;14.31;100.00
56006;BME280;41888;44.696;10.522;2023-05-20T08:55:53;100434.69;;;14.33;100.00
56006;BME280;41888;44.696;10.522;2023-05-20T08:58:29;100438.31;;;14.39;100.00
56006;BME280;41888;44.696;10.522;2023-05-20T09:00:56;100432.78;;;14.52;100.00
56006;BME280;41888;44.696;10.522;2023-05-20T09:03:23;100437.78;;;14.60;100.00
56006;BME280;41888;44.696;10.522;2023-05-20T09:05:51;100433.72;;;14.58;100.00
56006;BME280;41888;44.696;10.522;2023-05-20T09:08:18;100431.16;;;14.51;100.00
56006;BME280;41888;44.696;10.522;2023-05-20T09:10:45;100427.09;;;14.49;100.00
56006;BME280;41888;44.696;10.522;2023-05-20T09:13:11;100429.75;;;14.49;100.00
56006;BME280;41888;44.696;10.522;2023-05-20T09:15:37;100430.66;;;14.54;100.00
56006;BME280;41888;44.696;10.522;2023-05-20T09:18:06;100429.19;;;14.70;100.00
56006;BME280;41888;44.696;10.522;2023-05-20T09:20:34;100433.88;;;14.74;100.00
56006;BME280;41888;44.696;10.522;2023-05-20T09:23:04;100426.28;;;14.71;100.00
56006;BME280;41888;44.696;10.522;2023-05-20T09:25:31;100424.78;;;14.87;100.00
56006;BME280;41888;44.696;10.522;2023-05-20T09:27:57;100421.28;;;14.98;100.00
56006;BME280;41888;44.696;10.522;2023-05-20T09:30:24;100424.88;;;15.04;100.00
56006;BME280;41888;44.696;10.522;2023-05-20T09:32:58;100426.06;;;15.08;100.00
56006;BME280;41888;44.696;10.522;2023-05-20T09:35:26;100420.56;;;15.26;100.00
56006;BME280;41888;44.696;10.522;2023-05-20T09:37:57;100419.16;;;15.23;100.00
56006;BME280;41888;44.696;10.522;2023-05-20T09:40:28;100422.75;;;15.29;100.00
56006;BME280;41888;44.696;10.522;2023-05-20T09:43:02;100421.50;;;15.32;100.00
56006;BME280;41888;44.696;10.522;2023-05-20T09:45:28;100423.56;;;15.41;100.00
56006;BME280;41888;44.696;10.522;2023-05-20T09:47:55;100418.53;;;15.56;100.00
56006;BME280;41888;44.696;10.522;2023-05-20T09:50:23;100422.41;;;15.49;100.00
56006;BME280;41888;44.696;10.522;2023-05-20T09:52:50;100420.09;;;15.29;100.00
56006;BME280;41888;44.696;10.522;2023-05-20T09:55:18;100406.56;;;15.24;100.00
56006;BME280;41888;44.696;10.522;2023-05-20T09:57:46;100412.66;;;15.19;100.00
56006;BME280;41888;44.696;10.522;2023-05-20T10:00:13;100411.38;;;14.99;100.00
56006;BME280;41888;44.696;10.522;2023-05-20T10:02:44;100411.16;;;14.89;100.00
56006;BME280;41888;44.696;10.522;2023-05-20T10:05:35;100402.28;;;14.76;100.00
56006;BME280;41888;44.696;10.522;2023-05-20T10:21:22;100384.84;;;14.74;100.00
56006;BME280;41888;44.696;10.522;2023-05-20T10:23:52;100378.56;;;14.80;100.00
56006;BME280;41888;44.696;10.522;2023-05-20T10:26:18;100376.34;;;14.89;100.00
56006;BME280;41888;44.696;10.522;2023-05-20T10:28:47;100382.13;;;14.97;100.00
56006;BME280;41888;44.696;10.522;2023-05-20T10:31:19;100378.41;;;14.98;100.00
56006;BME280;41888;44.696;10.522;2023-05-20T10:33:47;100375.06;;;14.79;100.00
56006;BME280;41888;44.696;10.522;2023-05-20T10:36:26;100375.63;;;14.82;100.00
56006;BME280;41888;44.696;10.522;2023-05-20T10:38:57;100374.69;;;14.88;100.00
56006;BME280;41888;44.696;10.522;2023-05-20T10:41:26;100371.31;;;14.80;100.00
56006;BME280;41888;44.696;10.522;2023-05-20T10:44:05;100379.59;;;14.79;100.00
56006;BME280;41888;44.696;10.522;2023-05-20T10:46:32;100391.25;;;14.85;100.00
56006;BME280;41888;44.696;10.522;2023-05-20T10:49:02;100381.69;;;14.89;100.00
56006;BME280;41888;44.696;10.522;2023-05-20T10:51:29;100377.25;;;14.83;100.00
56006;BME280;41888;44.696;10.522;2023-05-20T10:53:57;100383.22;;;14.85;100.00
56006;BME280;41888;44.696;10.522;2023-05-20T10:56:25;100378.91;;;14.84;100.00
56006;BME280;41888;44.696;10.522;2023-05-20T10:58:53;100389.03;;;14.82;100.00
56006;BME280;41888;44.696;10.522;2023-05-20T11:01:25;100375.88;;;14.80;100.00
56006;BME280;41888;44.696;10.522;2023-05-20T11:03:54;100381.56;;;14.84;100.00
56006;BME280;41888;44.696;10.522;2023-05-20T11:06:28;100381.56;;;14.84;100.00
56006;BME280;41888;44.696;10.522;2023-05-20T11:08:54;100376.56;;;14.87;100.00
56006;BME280;41888;44.696;10.522;2023-05-20T11:11:21;100365.72;;;14.94;100.00
56006;BME280;41888;44.696;10.522;2023-05-20T11:13:51;100363.16;;;14.99;100.00
56006;BME280;41888;44.696;10.522;2023-05-20T11:16:19;100363.03;;;15.05;100.00
56006;BME280;41888;44.696;10.522;2023-05-20T11:18:48;100377.38;;;15.11;100.00
56006;BME280;41888;44.696;10.522;2023-05-20T11:21:15;100384.34;;;15.12;100.00
56006;BME280;41888;44.696;10.522;2023-05-20T11:23:41;100390.06;;;15.04;100.00
56006;BME280;41888;44.696;10.522;2023-05-20T11:26:07;100387.03;;;15.00;100.00
56006;BME280;41888;44.696;10.522;2023-05-20T11:28:35;100388.69;;;15.01;100.00
56006;BME280;41888;44.696;10.522;2023-05-20T11:31:01;100382.97;;;14.98;100.00
56006;BME280;41888;44.696;10.522;2023-05-20T11:33:29;100384.38;;;15.00;100.00
56006;BME280;41888;44.696;10.522;2023-05-20T11:35:56;100379.81;;;15.01;100.00
56006;BME280;41888;44.696;10.522;2023-05-20T11:38:23;100379.34;;;15.04;100.00
56006;BME280;41888;44.696;10.522;2023-05-20T11:40:54;100375.03;;;15.03;100.00
56006;BME280;41888;44.696;10.522;2023-05-20T11:43:22;100372.84;;;15.00;100.00
56006;BME280;41888;44.696;10.522;2023-05-20T11:45:58;100370.88;;;14.95;100.00
56006;BME280;41888;44.696;10.522;2023-05-20T11:48:24;100368.84;;;15.02;100.00
56006;BME280;41888;44.696;10.522;2023-05-20T11:50:55;100374.09;;;15.09;100.00
56006;BME280;41888;44.696;10.522;2023-05-20T11:53:22;100356.94;;;15.21;100.00
56006;BME280;41888;44.696;10.522;2023-05-20T11:55:57;100364.38;;;15.31;100.00
56006;BME280;41888;44.696;10.522;2023-05-20T11:58:26;100362.31;;;15.21;100.00
56006;BME280;41888;44.696;10.522;2023-05-20T12:00:54;100361.94;;;15.18;100.00
56006;BME280;41888;44.696;10.522;2023-05-20T12:03:20;100356.59;;;15.18;100.00
56006;BME280;41888;44.696;10.522;2023-05-20T12:05:47;100362.75;;;15.30;100.00
56006;BME280;41888;44.696;10.522;2023-05-20T12:08:14;100362.84;;;15.35;100.00
56006;BME280;41888;44.696;10.522;2023-05-20T12:10:40;100365.75;;;15.34;100.00
56006;BME280;41888;44.696;10.522;2023-05-20T12:13:07;100365.19;;;15.32;100.00
56006;BME280;41888;44.696;10.522;2023-05-20T12:15:37;100354.81;;;15.35;100.00
56006;BME280;41888;44.696;10.522;2023-05-20T12:18:03;100350.38;;;15.41;100.00
56006;BME280;41888;44.696;10.522;2023-05-20T12:20:30;100351.88;;;15.48;100.00
56006;BME280;41888;44.696;10.522;2023-05-20T12:22:59;100352.56;;;15.55;100.00
56006;BME280;41888;44.696;10.522;2023-05-20T12:25:26;100354.78;;;15.58;100.00
56006;BME280;41888;44.696;10.522;2023-05-20T12:27:52;100353.72;;;15.59;100.00
56006;BME280;41888;44.696;10.522;2023-05-20T12:30:20;100355.09;;;15.50;100.00
56006;BME280;41888;44.696;10.522;2023-05-20T12:32:48;100347.44;;;15.42;100.00
56006;BME280;41888;44.696;10.522;2023-05-20T12:35:34;100361.69;;;15.43;100.00
56006;BME280;41888;44.696;10.522;2023-05-20T12:38:01;100356.44;;;15.36;100.00
56006;BME280;41888;44.696;10.522;2023-05-20T12:40:27;100361.81;;;15.36;100.00
56006;BME280;41888;44.696;10.522;2023-05-20T12:42:53;100360.50;;;15.39;100.00
56006;BME280;41888;44.696;10.522;2023-05-20T12:45:20;100364.25;;;15.38;100.00